createdAt,value
2022-07-30T00:01:57.276Z,100.00
2022-07-30T00:04:24.939Z,100.00
2022-07-30T00:06:53.205Z,100.00
2022-07-30T00:09:21.012Z,100.00
2022-07-30T00:11:50.684Z,100.00
2022-07-30T00:14:23.376Z,100.00
2022-07-30T00:16:50.993Z,100.00
2022-07-30T00:19:21.021Z,100.00
2022-07-30T00:21:50.930Z,100.00
2022-07-30T00:24:18.609Z,100.00
2022-07-30T00:26:46.730Z,100.00
2022-07-30T00:29:14.386Z,100.00
2022-07-30T00:31:44.387Z,100.00
2022-07-30T00:34:13.104Z,100.00
2022-07-30T00:36:41.010Z,100.00
2022-07-30T00:39:11.454Z,100.00
2022-07-30T00:42:01.523Z,100.00
2022-07-30T00:44:30.283Z,100.00
2022-07-30T00:46:58.979Z,100.00
2022-07-30T00:49:27.989Z,100.00
2022-07-30T00:51:58.750Z,100.00
2022-07-30T00:54:29.375Z,100.00
2022-07-30T00:56:58.217Z,100.00
2022-07-30T00:59:31.647Z,100.00
2022-07-30T01:02:01.740Z,100.00
2022-07-30T01:04:32.246Z,100.00
2022-07-30T01:06:59.862Z,100.00
2022-07-30T01:09:27.349Z,100.00
2022-07-30T01:11:55.896Z,100.00
2022-07-30T01:14:23.573Z,100.00
2022-07-30T01:16:51.415Z,100.00
2022-07-30T01:19:46.335Z,100.00
2022-07-30T01:22:30.734Z,100.00
2022-07-30T01:25:21.054Z,100.00
2022-07-30T01:28:10.052Z,100.00
2022-07-30T01:30:42.724Z,100.00
2022-07-30T01:33:19.929Z,100.00
2022-07-30T01:35:50.725Z,100.00
2022-07-30T01:38:25.681Z,100.00
2022-07-30T01:40:56.035Z,100.00
2022-07-30T01:43:29.118Z,100.00
2022-07-30T01:45:58.886Z,100.00
2022-07-30T01:48:32.389Z,100.00
2022-07-30T01:51:05.539Z,100.00
2022-07-30T01:53:40.887Z,100.00
2022-07-30T01:56:16.673Z,100.00
2022-07-30T01:58:49.099Z,100.00
2022-07-30T02:01:28.111Z,100.00
2022-07-30T02:04:04.120Z,100.00
2022-07-30T02:07:00.339Z,100.00
2022-07-30T02:09:52.276Z,100.00
2022-07-30T02:12:31.562Z,100.00
2022-07-30T02:15:40.785Z,100.00
2022-07-30T02:18:45.321Z,100.00
2022-07-30T02:21:20.090Z,100.00
2022-07-30T02:23:50.667Z,100.00
2022-07-30T02:26:24.763Z,100.00
2022-07-30T02:29:02.237Z,100.00
2022-07-30T02:31:35.538Z,100.00
2022-07-30T02:34:07.086Z,100.00
2022-07-30T02:36:37.435Z,100.00
2022-07-30T02:39:06.868Z,100.00
2022-07-30T02:41:38.694Z,100.00
2022-07-30T02:44:10.373Z,100.00
2022-07-30T02:46:42.104Z,100.00
2022-07-30T02:49:35.495Z,100.00
2022-07-30T02:52:13.210Z,100.00
2022-07-30T02:54:44.549Z,100.00
2022-07-30T02:57:21.327Z,100.00
2022-07-30T02:59:54.451Z,100.00
2022-07-30T03:02:29.314Z,100.00
2022-07-30T03:05:08.801Z,100.00
2022-07-30T03:07:40.878Z,100.00
2022-07-30T03:10:12.243Z,100.00
2022-07-30T03:12:46.293Z,100.00
2022-07-30T03:15:14.945Z,100.00
2022-07-30T03:17:50.818Z,100.00
2022-07-30T03:20:27.335Z,100.00
2022-07-30T03:23:01.840Z,100.00
2022-07-30T03:25:32.401Z,100.00
2022-07-30T03:28:09.670Z,100.00
2022-07-30T03:30:37.933Z,100.00
2022-07-30T03:33:07.085Z,100.00
2022-07-30T03:35:35.624Z,100.00
2022-07-30T03:38:03.847Z,100.00
2022-07-30T03:40:34.652Z,100.00
2022-07-30T03:43:06.296Z,100.00
2022-07-30T03:45:58.664Z,100.00
2022-07-30T03:48:29.487Z,100.00
2022-07-30T03:51:05.722Z,100.00
2022-07-30T03:53:34.360Z,100.00
2022-07-30T03:56:34.451Z,100.00
2022-07-30T03:59:14.894Z,100.00
2022-07-30T04:01:46.506Z,100.00
2022-07-30T04:04:22.593Z,100.00
2022-07-30T04:06:52.638Z,100.00
2022-07-30T04:09:26.730Z,100.00
2022-07-30T04:11:58.697Z,100.00
2022-07-30T04:14:45.611Z,100.00
2022-07-30T04:17:36.339Z,100.00
2022-07-30T04:20:24.669Z,100.00
2022-07-30T04:22:58.076Z,100.00
2022-07-30T04:25:26.848Z,100.00
2022-07-30T04:28:03.034Z,100.00
2022-07-30T04:30:35.492Z,100.00
2022-07-30T04:33:09.378Z,100.00
2022-07-30T04:35:55.692Z,100.00
2022-07-30T04:38:33.121Z,100.00
2022-07-30T04:41:01.189Z,100.00
2022-07-30T04:43:33.551Z,100.00
2022-07-30T04:46:15.262Z,100.00
2022-07-30T04:49:07.346Z,100.00
2022-07-30T04:51:38.623Z,100.00
2022-07-30T04:54:16.236Z,100.00
2022-07-30T04:56:54.199Z,100.00
2022-07-30T04:59:26.433Z,100.00
2022-07-30T05:01:56.738Z,100.00
2022-07-30T05:04:28.574Z,100.00
2022-07-30T05:06:58.758Z,100.00
2022-07-30T05:09:28.849Z,100.00
2022-07-30T05:11:57.981Z,100.00
2022-07-30T05:14:29.955Z,100.00
2022-07-30T05:16:58.560Z,100.00
2022-07-30T05:19:26.811Z,100.00
2022-07-30T05:21:57.352Z,100.00
2022-07-30T05:24:27.490Z,100.00
2022-07-30T05:26:57.671Z,100.00
2022-07-30T05:29:28.933Z,100.00
2022-07-30T05:32:07.613Z,100.00
2022-07-30T05:34:36.589Z,100.00
2022-07-30T05:37:05.036Z,100.00
2022-07-30T05:39:34.083Z,100.00
2022-07-30T05:42:35.963Z,100.00
2022-07-30T05:45:07.328Z,100.00
2022-07-30T05:47:35.035Z,100.00
2022-07-30T05:50:05.186Z,100.00
2022-07-30T05:52:34.043Z,100.00
2022-07-30T05:55:12.817Z,100.00
2022-07-30T05:57:53.278Z,100.00
2022-07-30T06:00:21.346Z,100.00
2022-07-30T06:02:53.050Z,100.00
2022-07-30T06:05:26.506Z,100.00
2022-07-30T06:07:56.484Z,100.00
2022-07-30T06:10:26.259Z,100.00
2022-07-30T06:12:54.400Z,100.00
2022-07-30T06:15:26.037Z,100.00
2022-07-30T06:18:02.008Z,100.00
2022-07-30T06:20:54.155Z,100.00
2022-07-30T06:23:33.310Z,100.00
2022-07-30T06:26:21.387Z,100.00
2022-07-30T06:28:48.703Z,100.00
2022-07-30T06:31:29.793Z,100.00
2022-07-30T06:33:57.253Z,100.00
2022-07-30T06:36:26.678Z,100.00
2022-07-30T06:39:00.679Z,100.00
2022-07-30T06:41:48.485Z,100.00
2022-07-30T06:44:16.106Z,100.00
2022-07-30T06:47:07.165Z,100.00
2022-07-30T06:49:37.759Z,100.00
2022-07-30T06:52:06.741Z,100.00
2022-07-30T06:54:34.317Z,100.00
2022-07-30T06:57:07.078Z,100.00
2022-07-30T06:59:56.965Z,100.00
2022-07-30T07:02:44.733Z,100.00
2022-07-30T07:05:14.658Z,100.00
2022-07-30T07:07:58.362Z,100.00
2022-07-30T07:10:29.076Z,100.00
2022-07-30T07:13:25.745Z,100.00
2022-07-30T07:15:53.048Z,100.00
2022-07-30T07:18:22.916Z,100.00
2022-07-30T07:20:55.434Z,100.00
2022-07-30T07:23:24.074Z,100.00
2022-07-30T07:25:55.812Z,100.00
2022-07-30T07:28:29.975Z,100.00
2022-07-30T07:31:02.040Z,100.00
2022-07-30T07:33:33.452Z,100.00
2022-07-30T07:36:02.286Z,100.00
2022-07-30T07:38:33.205Z,100.00
2022-07-30T07:41:01.101Z,100.00
2022-07-30T07:43:29.205Z,100.00
2022-07-30T07:46:02.422Z,100.00
2022-07-30T07:48:33.639Z,100.00
2022-07-30T07:51:47.767Z,100.00
2022-07-30T07:54:22.612Z,100.00
2022-07-30T07:57:03.191Z,100.00
2022-07-30T07:59:40.131Z,100.00
2022-07-30T08:02:20.179Z,100.00
2022-07-30T08:05:06.751Z,100.00
2022-07-30T08:07:55.084Z,100.00
2022-07-30T08:10:50.249Z,100.00
2022-07-30T08:13:49.320Z,100.00
2022-07-30T08:16:47.217Z,100.00
2022-07-30T08:19:33.924Z,100.00
2022-07-30T08:22:17.994Z,100.00
2022-07-30T08:24:45.897Z,100.00
2022-07-30T08:27:23.030Z,100.00
2022-07-30T08:29:50.506Z,100.00
2022-07-30T08:32:25.581Z,100.00
2022-07-30T08:34:53.535Z,100.00
2022-07-30T08:37:22.120Z,100.00
2022-07-30T08:39:49.537Z,100.00
2022-07-30T08:42:17.403Z,100.00
2022-07-30T08:44:46.824Z,100.00
2022-07-30T08:47:21.387Z,100.00
2022-07-30T08:50:05.315Z,100.00
2022-07-30T08:52:37.970Z,100.00
2022-07-30T08:55:08.202Z,100.00
2022-07-30T08:57:38.621Z,100.00
2022-07-30T09:00:08.724Z,100.00
2022-07-30T09:02:36.484Z,100.00
2022-07-30T09:05:07.648Z,100.00
2022-07-30T09:07:36.648Z,100.00
2022-07-30T09:10:07.934Z,100.00
2022-07-30T09:12:45.686Z,100.00
2022-07-30T09:15:20.471Z,100.00
2022-07-30T09:18:03.051Z,100.00
2022-07-30T09:20:38.698Z,100.00
2022-07-30T09:23:09.258Z,100.00
2022-07-30T09:25:56.961Z,100.00
2022-07-30T09:28:43.142Z,100.00
2022-07-30T09:34:38.625Z,100.00
2022-07-30T09:37:19.928Z,100.00
2022-07-30T09:40:15.015Z,100.00
2022-07-30T09:43:12.631Z,100.00
2022-07-30T09:46:01.591Z,100.00
2022-07-30T09:48:29.261Z,100.00
2022-07-30T09:50:57.554Z,100.00
2022-07-30T09:53:26.507Z,100.00
2022-07-30T09:55:58.142Z,100.00
2022-07-30T09:58:45.566Z,100.00
2022-07-30T10:01:14.849Z,100.00
2022-07-30T10:04:02.291Z,100.00
2022-07-30T10:07:02.158Z,100.00
2022-07-30T10:09:47.086Z,100.00
2022-07-30T10:12:17.819Z,100.00
2022-07-30T10:14:54.012Z,100.00
2022-07-30T10:17:26.018Z,100.00
2022-07-30T10:20:19.029Z,100.00
2022-07-30T10:23:19.324Z,100.00
2022-07-30T10:26:09.132Z,100.00
2022-07-30T10:28:57.847Z,100.00
2022-07-30T10:31:47.978Z,100.00
2022-07-30T10:34:23.685Z,100.00
2022-07-30T10:37:01.813Z,100.00
2022-07-30T10:39:47.191Z,100.00
2022-07-30T10:42:42.141Z,100.00
2022-07-30T10:45:23.242Z,100.00
2022-07-30T10:47:53.313Z,100.00
2022-07-30T10:50:27.193Z,100.00
2022-07-30T10:53:03.496Z,100.00
2022-07-30T10:55:38.847Z,100.00
2022-07-30T10:58:14.252Z,100.00
2022-07-30T11:00:56.953Z,100.00
2022-07-30T11:03:40.966Z,100.00
2022-07-30T11:06:15.338Z,100.00
2022-07-30T11:08:48.501Z,100.00
2022-07-30T11:12:01.160Z,100.00
2022-07-30T11:14:20.340Z,94.17
2022-07-30T11:16:51.378Z,99.99
2022-07-30T11:19:56.433Z,98.26
2022-07-30T11:22:44.695Z,94.98
2022-07-30T11:25:50.428Z,86.09
2022-07-30T11:28:50.701Z,85.46
2022-07-30T11:31:56.504Z,79.78
2022-07-30T11:34:24.068Z,71.54
2022-07-30T11:37:21.773Z,70.71
2022-07-30T11:40:09.342Z,73.45
2022-07-30T11:42:44.960Z,76.15
2022-07-30T11:45:18.756Z,66.82
2022-07-30T11:47:59.845Z,53.17
2022-07-30T11:50:34.944Z,56.11
2022-07-30T11:53:06.638Z,62.17
2022-07-30T11:55:44.448Z,50.27
2022-07-30T11:58:34.460Z,52.48
2022-07-30T12:01:17.384Z,53.89
2022-07-30T12:03:46.567Z,54.53
2022-07-30T12:06:20.203Z,47.94
2022-07-30T12:08:58.175Z,52.44
2022-07-30T12:11:35.258Z,49.61
2022-07-30T12:14:06.830Z,48.85
2022-07-30T12:16:34.738Z,55.40
2022-07-30T12:19:06.447Z,60.05
2022-07-30T12:21:35.053Z,57.77
2022-07-30T12:24:13.760Z,52.34
2022-07-30T12:26:45.116Z,58.87
2022-07-30T12:29:15.827Z,55.97
2022-07-30T12:31:46.252Z,50.46
2022-07-30T12:34:26.746Z,55.71
2022-07-30T12:36:55.525Z,55.98
2022-07-30T12:39:29.863Z,54.35
2022-07-30T12:42:06.545Z,59.62
2022-07-30T12:44:48.137Z,51.93
2022-07-30T12:47:39.806Z,49.65
2022-07-30T12:50:18.702Z,55.03
2022-07-30T12:52:51.853Z,57.07
2022-07-30T12:55:33.042Z,51.78
2022-07-30T12:58:08.688Z,48.37
2022-07-30T13:01:03.851Z,50.66
2022-07-30T13:03:39.366Z,50.71
2022-07-30T13:06:28.611Z,48.13
2022-07-30T13:08:59.771Z,46.11
2022-07-30T13:11:48.666Z,46.68
2022-07-30T13:14:17.968Z,44.18
2022-07-30T13:16:46.005Z,50.25
2022-07-30T13:19:13.633Z,50.27
2022-07-30T13:21:49.793Z,46.54
2022-07-30T13:24:19.428Z,43.52
2022-07-30T13:26:53.237Z,43.21
2022-07-30T13:29:27.962Z,38.25
2022-07-30T13:31:58.281Z,38.97
2022-07-30T13:34:25.943Z,39.13
2022-07-30T13:36:53.577Z,38.88
2022-07-30T13:39:21.376Z,40.71
2022-07-30T13:41:48.709Z,43.15
2022-07-30T13:44:17.732Z,43.84
2022-07-30T13:46:45.750Z,45.42
2022-07-30T13:49:16.303Z,38.31
2022-07-30T13:51:46.346Z,45.92
2022-07-30T13:54:23.590Z,43.50
2022-07-30T13:56:51.293Z,38.95
2022-07-30T13:59:18.820Z,36.35
2022-07-30T14:01:51.066Z,35.75
2022-07-30T14:04:18.643Z,35.06
2022-07-30T14:06:48.399Z,36.27
2022-07-30T14:09:23.975Z,33.64
2022-07-30T14:12:00.516Z,33.86
2022-07-30T14:14:33.676Z,35.89
2022-07-30T14:17:01.530Z,34.88
2022-07-30T14:19:29.306Z,34.50
2022-07-30T14:21:58.949Z,34.43
2022-07-30T14:24:26.643Z,36.48
2022-07-30T14:26:58.359Z,35.48
2022-07-30T14:29:29.454Z,35.31
2022-07-30T14:31:59.446Z,32.17
2022-07-30T14:34:26.991Z,38.45
2022-07-30T14:36:54.504Z,40.96
2022-07-30T14:39:22.385Z,42.55
2022-07-30T14:41:55.659Z,46.19
2022-07-30T14:44:24.016Z,42.42
2022-07-30T14:46:54.329Z,37.00
2022-07-30T14:49:23.947Z,35.03
2022-07-30T14:51:52.768Z,33.39
2022-07-30T14:54:21.041Z,35.39
2022-07-30T14:56:56.159Z,33.44
2022-07-30T14:59:35.255Z,33.22
2022-07-30T15:02:10.925Z,34.52
2022-07-30T15:04:48.956Z,31.68
2022-07-30T15:07:20.045Z,31.76
2022-07-30T15:09:47.510Z,34.12
2022-07-30T15:12:19.291Z,34.42
2022-07-30T15:14:54.794Z,34.33
2022-07-30T15:17:23.347Z,33.91
2022-07-30T15:19:51.572Z,31.23
2022-07-30T15:22:20.507Z,38.74
2022-07-30T15:24:48.840Z,46.36
2022-07-30T15:27:16.671Z,50.15
2022-07-30T15:29:44.610Z,43.54
2022-07-30T15:32:19.313Z,45.84
2022-07-30T15:34:49.369Z,50.16
2022-07-30T15:37:17.345Z,53.65
2022-07-30T15:39:48.944Z,53.28
2022-07-30T15:42:17.915Z,41.78
2022-07-30T15:44:48.594Z,36.94
2022-07-30T15:47:17.161Z,35.11
2022-07-30T15:49:44.927Z,35.89
2022-07-30T15:52:13.014Z,34.40
2022-07-30T15:54:41.024Z,38.21
2022-07-30T15:57:08.572Z,36.08
2022-07-30T15:59:36.205Z,37.06
2022-07-30T16:02:04.109Z,39.78
2022-07-30T16:04:34.445Z,41.10
2022-07-30T16:07:04.152Z,39.56
2022-07-30T16:09:31.853Z,35.80
2022-07-30T16:11:59.562Z,33.90
2022-07-30T16:14:27.848Z,34.70
2022-07-30T16:16:58.665Z,34.72
2022-07-30T16:19:29.509Z,36.61
2022-07-30T16:21:57.204Z,34.64
2022-07-30T16:24:26.242Z,33.71
2022-07-30T16:26:53.849Z,31.31
2022-07-30T16:29:21.295Z,30.93
2022-07-30T16:31:48.871Z,29.63
2022-07-30T16:34:17.920Z,29.13
2022-07-30T16:36:54.187Z,30.17
2022-07-30T16:39:22.303Z,27.43
2022-07-30T16:41:50.229Z,28.28
2022-07-30T16:44:17.813Z,26.07
2022-07-30T16:46:45.247Z,26.41
2022-07-30T16:49:12.711Z,29.52
2022-07-30T16:51:40.925Z,29.33
2022-07-30T16:54:08.512Z,28.13
2022-07-30T16:56:35.930Z,24.29
2022-07-30T16:59:03.462Z,24.09
2022-07-30T17:01:32.243Z,19.30
2022-07-30T17:03:59.790Z,19.59
2022-07-30T17:06:27.696Z,19.69
2022-07-30T17:08:55.592Z,20.05
2022-07-30T17:11:51.880Z,19.98
2022-07-30T17:14:13.110Z,20.14
2022-07-30T17:16:40.904Z,16.87
2022-07-30T17:19:09.608Z,18.02
2022-07-30T17:21:40.326Z,20.76
2022-07-30T17:24:11.826Z,21.25
2022-07-30T17:26:43.420Z,19.05
2022-07-30T17:29:16.552Z,22.54
2022-07-30T17:31:46.109Z,23.56
2022-07-30T17:34:18.323Z,25.57
2022-07-30T17:36:52.252Z,24.79
2022-07-30T17:40:01.657Z,25.70
2022-07-30T17:42:11.856Z,26.44
2022-07-30T17:44:43.376Z,26.02
2022-07-30T17:47:14.490Z,27.36
2022-07-30T17:49:42.489Z,27.44
2022-07-30T17:52:09.937Z,27.61
2022-07-30T17:54:38.039Z,27.39
2022-07-30T17:57:05.683Z,27.35
2022-07-30T17:59:33.701Z,28.10
2022-07-30T18:02:01.817Z,27.91
2022-07-30T18:04:29.667Z,28.34
2022-07-30T18:06:57.508Z,29.08
2022-07-30T18:09:25.116Z,29.05
2022-07-30T18:11:53.076Z,29.27
2022-07-30T18:14:24.184Z,29.69
2022-07-30T18:16:54.432Z,30.04
2022-07-30T18:19:22.896Z,30.12
2022-07-30T18:21:55.102Z,30.44
2022-07-30T18:24:24.552Z,30.53
2022-07-30T18:26:53.097Z,30.98
2022-07-30T18:29:21.127Z,30.55
2022-07-30T18:31:48.994Z,30.49
2022-07-30T18:34:16.616Z,30.84
2022-07-30T18:36:44.411Z,30.76
2022-07-30T18:39:12.228Z,30.62
2022-07-30T18:41:39.916Z,30.83
2022-07-30T18:44:07.455Z,31.04
2022-07-30T18:46:35.690Z,31.25
2022-07-30T18:49:15.453Z,30.54
2022-07-30T18:51:50.888Z,30.69
2022-07-30T18:54:18.577Z,30.80
2022-07-30T18:56:46.017Z,31.04
2022-07-30T18:59:14.842Z,31.62
2022-07-30T19:01:43.754Z,31.04
2022-07-30T19:04:11.561Z,31.56
2022-07-30T19:06:39.100Z,31.85
2022-07-30T19:09:13.021Z,31.22
2022-07-30T19:11:45.745Z,31.04
2022-07-30T19:14:14.639Z,31.77
2022-07-30T19:16:44.522Z,31.48
2022-07-30T19:19:13.724Z,31.72
2022-07-30T19:21:41.843Z,31.98
2022-07-30T19:24:10.286Z,31.96
2022-07-30T19:26:39.416Z,32.23
2022-07-30T19:29:08.192Z,32.54
2022-07-30T19:31:36.620Z,32.84
2022-07-30T19:34:04.981Z,32.87
2022-07-30T19:36:33.627Z,33.14
2022-07-30T19:39:06.955Z,33.54
2022-07-30T19:41:42.111Z,33.91
2022-07-30T19:44:12.002Z,34.15
2022-07-30T19:46:41.516Z,34.23
2022-07-30T19:49:10.920Z,34.56
2022-07-30T19:52:07.302Z,34.28
2022-07-30T19:54:26.026Z,34.77
2022-07-30T19:56:53.246Z,35.40
2022-07-30T19:59:43.736Z,35.64
2022-07-30T20:02:08.462Z,35.60
2022-07-30T20:04:37.640Z,36.01
2022-07-30T20:07:05.263Z,36.12
2022-07-30T20:09:32.895Z,35.87
2022-07-30T20:12:02.451Z,35.81
2022-07-30T20:14:30.090Z,35.82
2022-07-30T20:17:01.950Z,36.57
2022-07-30T20:19:36.042Z,36.88
2022-07-30T20:22:04.951Z,38.51
2022-07-30T20:24:34.512Z,38.66
2022-07-30T20:27:38.593Z,39.73
2022-07-30T20:29:58.366Z,41.09
2022-07-30T20:32:26.263Z,41.41
2022-07-30T20:34:55.422Z,41.10
2022-07-30T20:37:23.389Z,42.22
2022-07-30T20:39:58.440Z,41.07
2022-07-30T20:42:28.022Z,41.85
2022-07-30T20:44:57.972Z,43.47
2022-07-30T20:47:34.633Z,43.63
2022-07-30T20:50:14.423Z,43.90
2022-07-30T20:52:51.169Z,44.98
2022-07-30T20:55:24.788Z,45.65
2022-07-30T20:58:11.176Z,46.93
2022-07-30T21:00:50.006Z,47.22
2022-07-30T21:03:22.117Z,47.77
2022-07-30T21:05:56.499Z,49.57
2022-07-30T21:08:26.590Z,49.09
2022-07-30T21:11:04.698Z,48.52
2022-07-30T21:13:35.600Z,49.54
2022-07-30T21:16:15.451Z,49.96
2022-07-30T21:18:49.972Z,48.88
2022-07-30T21:21:30.645Z,49.50
2022-07-30T21:24:14.927Z,47.81
2022-07-30T21:26:52.430Z,47.55
2022-07-30T21:29:20.800Z,49.90
2022-07-30T21:32:03.067Z,47.94
2022-07-30T21:34:40.343Z,47.61
2022-07-30T21:37:15.553Z,47.53
2022-07-30T21:39:46.124Z,47.65
2022-07-30T21:42:30.123Z,46.92
2022-07-30T21:45:00.535Z,46.83
2022-07-30T21:47:33.558Z,46.89
2022-07-30T21:50:10.872Z,46.49
2022-07-30T21:52:46.810Z,46.35
2022-07-30T21:55:17.602Z,44.62
2022-07-30T21:57:57.739Z,44.56
2022-07-30T22:01:17.895Z,44.32
2022-07-30T22:04:02.075Z,43.66
2022-07-30T22:06:44.704Z,43.70
2022-07-30T22:09:34.242Z,43.80
2022-07-30T22:12:12.277Z,43.73
2022-07-30T22:15:15.460Z,43.49
2022-07-30T22:17:58.671Z,44.24
2022-07-30T22:20:37.735Z,45.95
2022-07-30T22:23:13.564Z,46.64
2022-07-30T22:25:46.688Z,49.41
2022-07-30T22:28:22.904Z,50.11
2022-07-30T22:30:56.237Z,51.77
2022-07-30T22:33:32.015Z,50.94
2022-07-30T22:39:02.929Z,55.84
2022-07-30T22:41:41.953Z,53.53
2022-07-30T22:44:12.944Z,56.40
2022-07-30T22:46:56.054Z,56.47
2022-07-30T22:49:45.918Z,57.83
2022-07-30T22:52:30.325Z,59.54
2022-07-30T22:55:22.162Z,60.16
2022-07-30T22:57:54.042Z,63.49
2022-07-30T23:03:27.859Z,61.95
2022-07-30T23:06:01.385Z,67.26
2022-07-30T23:08:36.821Z,71.49
2022-07-30T23:11:21.536Z,72.01
2022-07-30T23:12:31.991Z,51.17
2022-07-30T23:12:34.370Z,59.41
2022-07-30T23:14:02.141Z,65.53
2022-07-30T23:16:34.324Z,67.44
2022-07-30T23:19:21.786Z,73.32
2022-07-30T23:22:04.361Z,69.67
2022-07-30T23:24:47.077Z,74.98
2022-07-30T23:27:17.900Z,71.33
2022-07-30T23:29:51.045Z,73.46
2022-07-30T23:32:24.718Z,73.48
2022-07-30T23:34:55.004Z,72.17
2022-07-30T23:37:47.704Z,71.34
2022-07-30T23:40:25.374Z,71.51
2022-07-30T23:42:56.566Z,71.03
2022-07-30T23:45:30.285Z,71.78
2022-07-30T23:48:02.386Z,75.36
2022-07-30T23:50:36.420Z,79.34
2022-07-30T23:53:07.503Z,81.60
2022-07-30T23:55:42.542Z,82.51
2022-07-30T23:58:27.617Z,89.60
